sensor_id;sensor_type;location;lat;lon;timestamp;pressure;altitude;pressure_sealevel;temperature
16956;BMP180;8594;52.052;8.354;2024-02-26T00:01:51;99093.00;;;7.80
16956;BMP180;8594;52.052;8.354;2024-02-26T00:04:18;99110.00;;;7.90
16956;BMP180;8594;52.052;8.354;2024-02-26T00:06:44;99103.00;;;7.70
16956;BMP180;8594;52.052;8.354;2024-02-26T00:09:11;99113.00;;;7.80
16956;BMP180;8594;52.052;8.354;2024-02-26T00:11:38;99106.00;;;7.70
16956;BMP180;8594;52.052;8.354;2024-02-26T00:14:05;99114.00;;;7.80
16956;BMP180;8594;52.052;8.354;2024-02-26T00:16:31;99110.00;;;7.90
16956;BMP180;8594;52.052;8.354;2024-02-26T00:18:59;99113.00;;;7.90
16956;BMP180;8594;52.052;8.354;2024-02-26T00:21:26;99108.00;;;7.80
16956;BMP180;8594;52.052;8.354;2024-02-26T00:23:53;99119.00;;;8.10
16956;BMP180;8594;52.052;8.354;2024-02-26T00:26:20;99118.00;;;7.80
16956;BMP180;8594;52.052;8.354;2024-02-26T00:28:46;99118.00;;;7.60
16956;BMP180;8594;52.052;8.354;2024-02-26T00:31:13;99125.00;;;7.90
16956;BMP180;8594;52.052;8.354;2024-02-26T00:33:40;99115.00;;;7.80
16956;BMP180;8594;52.052;8.354;2024-02-26T00:36:08;99109.00;;;7.60
16956;BMP180;8594;52.052;8.354;2024-02-26T00:38:36;99120.00;;;7.70
16956;BMP180;8594;52.052;8.354;2024-02-26T00:41:02;99112.00;;;7.70
16956;BMP180;8594;52.052;8.354;2024-02-26T00:43:29;99107.00;;;7.60
16956;BMP180;8594;52.052;8.354;2024-02-26T00:45:56;99097.00;;;7.70
16956;BMP180;8594;52.052;8.354;2024-02-26T00:48:23;99107.00;;;7.80
16956;BMP180;8594;52.052;8.354;2024-02-26T00:50:51;99100.00;;;7.70
16956;BMP180;8594;52.052;8.354;2024-02-26T00:53:19;99103.00;;;7.80
16956;BMP180;8594;52.052;8.354;2024-02-26T00:55:46;99104.00;;;7.60
16956;BMP180;8594;52.052;8.354;2024-02-26T00:58:12;99090.00;;;7.60
16956;BMP180;8594;52.052;8.354;2024-02-26T01:00:39;99100.00;;;7.70
16956;BMP180;8594;52.052;8.354;2024-02-26T01:03:06;99092.00;;;7.70
16956;BMP180;8594;52.052;8.354;2024-02-26T01:05:32;99094.00;;;7.70
16956;BMP180;8594;52.052;8.354;2024-02-26T01:07:59;99088.00;;;7.50
16956;BMP180;8594;52.052;8.354;2024-02-26T01:10:27;99087.00;;;7.90
16956;BMP180;8594;52.052;8.354;2024-02-26T01:12:54;99088.00;;;7.70
16956;BMP180;8594;52.052;8.354;2024-02-26T01:15:21;99089.00;;;7.70
16956;BMP180;8594;52.052;8.354;2024-02-26T01:17:49;99096.00;;;8.10
16956;BMP180;8594;52.052;8.354;2024-02-26T01:20:15;99089.00;;;7.70
16956;BMP180;8594;52.052;8.354;2024-02-26T01:22:42;99084.00;;;7.90
16956;BMP180;8594;52.052;8.354;2024-02-26T01:25:09;99093.00;;;7.80
16956;BMP180;8594;52.052;8.354;2024-02-26T01:27:38;99085.00;;;7.70
16956;BMP180;8594;52.052;8.354;2024-02-26T01:30:08;99083.00;;;7.70
16956;BMP180;8594;52.052;8.354;2024-02-26T01:32:35;99088.00;;;7.80
16956;BMP180;8594;52.052;8.354;2024-02-26T01:35:02;99076.00;;;7.60
16956;BMP180;8594;52.052;8.354;2024-02-26T01:37:30;99080.00;;;8.10
16956;BMP180;8594;52.052;8.354;2024-02-26T01:39:57;99082.00;;;7.90
16956;BMP180;8594;52.052;8.354;2024-02-26T01:42:24;99080.00;;;7.80
16956;BMP180;8594;52.052;8.354;2024-02-26T01:44:52;99063.00;;;7.70
16956;BMP180;8594;52.052;8.354;2024-02-26T01:47:19;99059.00;;;7.70
16956;BMP180;8594;52.052;8.354;2024-02-26T01:49:46;99052.00;;;7.70
16956;BMP180;8594;52.052;8.354;2024-02-26T01:52:13;99059.00;;;7.50
16956;BMP180;8594;52.052;8.354;2024-02-26T01:54:42;99054.00;;;7.40
16956;BMP180;8594;52.052;8.354;2024-02-26T01:57:13;99049.00;;;7.20
16956;BMP180;8594;52.052;8.354;2024-02-26T01:59:41;99043.00;;;7.00
16956;BMP180;8594;52.052;8.354;2024-02-26T02:02:11;99037.00;;;7.20
16956;BMP180;8594;52.052;8.354;2024-02-26T02:04:39;99039.00;;;6.80
16956;BMP180;8594;52.052;8.354;2024-02-26T02:07:06;99035.00;;;6.70
16956;BMP180;8594;52.052;8.354;2024-02-26T02:09:33;99051.00;;;6.70
16956;BMP180;8594;52.052;8.354;2024-02-26T02:12:00;99060.00;;;6.80
16956;BMP180;8594;52.052;8.354;2024-02-26T02:14:27;99068.00;;;7.10
16956;BMP180;8594;52.052;8.354;2024-02-26T02:16:54;99071.00;;;6.30
16956;BMP180;8594;52.052;8.354;2024-02-26T02:19:22;99078.00;;;6.40
16956;BMP180;8594;52.052;8.354;2024-02-26T02:21:50;99076.00;;;6.60
16956;BMP180;8594;52.052;8.354;2024-02-26T02:24:17;99065.00;;;6.50
16956;BMP180;8594;52.052;8.354;2024-02-26T02:26:44;99068.00;;;6.50
16956;BMP180;8594;52.052;8.354;2024-02-26T02:29:12;99063.00;;;6.60
16956;BMP180;8594;52.052;8.354;2024-02-26T02:31:39;99066.00;;;6.80
16956;BMP180;8594;52.052;8.354;2024-02-26T02:34:06;99074.00;;;6.80
16956;BMP180;8594;52.052;8.354;2024-02-26T02:36:33;99069.00;;;6.90
16956;BMP180;8594;52.052;8.354;2024-02-26T02:39:01;99064.00;;;7.10
16956;BMP180;8594;52.052;8.354;2024-02-26T02:41:28;99069.00;;;6.70
16956;BMP180;8594;52.052;8.354;2024-02-26T02:43:55;99075.00;;;7.00
16956;BMP180;8594;52.052;8.354;2024-02-26T02:46:23;99076.00;;;7.40
16956;BMP180;8594;52.052;8.354;2024-02-26T02:48:49;99066.00;;;7.30
16956;BMP180;8594;52.052;8.354;2024-02-26T02:51:16;99078.00;;;7.40
16956;BMP180;8594;52.052;8.354;2024-02-26T02:53:43;99076.00;;;7.70
16956;BMP180;8594;52.052;8.354;2024-02-26T02:56:11;99089.00;;;7.40
16956;BMP180;8594;52.052;8.354;2024-02-26T02:58:38;99082.00;;;7.70
16956;BMP180;8594;52.052;8.354;2024-02-26T03:01:04;99071.00;;;7.50
16956;BMP180;8594;52.052;8.354;2024-02-26T03:03:31;99073.00;;;7.20
16956;BMP180;8594;52.052;8.354;2024-02-26T03:05:58;99082.00;;;7.10
16956;BMP180;8594;52.052;8.354;2024-02-26T03:08:24;99079.00;;;7.30
16956;BMP180;8594;52.052;8.354;2024-02-26T03:10:51;99080.00;;;7.50
16956;BMP180;8594;52.052;8.354;2024-02-26T03:13:20;99082.00;;;7.30
16956;BMP180;8594;52.052;8.354;2024-02-26T03:15:46;99087.00;;;7.20
16956;BMP180;8594;52.052;8.354;2024-02-26T03:18:13;99083.00;;;7.10
16956;BMP180;8594;52.052;8.354;2024-02-26T03:20:40;99096.00;;;7.20
16956;BMP180;8594;52.052;8.354;2024-02-26T03:23:07;99089.00;;;7.30
16956;BMP180;8594;52.052;8.354;2024-02-26T03:25:37;99105.00;;;7.50
16956;BMP180;8594;52.052;8.354;2024-02-26T03:28:05;99100.00;;;7.30
16956;BMP180;8594;52.052;8.354;2024-02-26T03:30:33;99099.00;;;7.80
16956;BMP180;8594;52.052;8.354;2024-02-26T03:33:00;99101.00;;;7.50
16956;BMP180;8594;52.052;8.354;2024-02-26T03:35:26;99087.00;;;7.30
16956;BMP180;8594;52.052;8.354;2024-02-26T03:37:53;99088.00;;;7.60
16956;BMP180;8594;52.052;8.354;2024-02-26T03:40:20;99096.00;;;7.40
16956;BMP180;8594;52.052;8.354;2024-02-26T03:42:47;99100.00;;;7.50
16956;BMP180;8594;52.052;8.354;2024-02-26T03:45:14;99100.00;;;7.60
16956;BMP180;8594;52.052;8.354;2024-02-26T03:47:42;99094.00;;;7.50
16956;BMP180;8594;52.052;8.354;2024-02-26T03:50:10;99101.00;;;7.90
16956;BMP180;8594;52.052;8.354;2024-02-26T03:52:36;99101.00;;;7.50
16956;BMP180;8594;52.052;8.354;2024-02-26T03:55:04;99106.00;;;7.70
16956;BMP180;8594;52.052;8.354;2024-02-26T03:57:31;99106.00;;;7.90
16956;BMP180;8594;52.052;8.354;2024-02-26T03:59:57;99111.00;;;8.00
16956;BMP180;8594;52.052;8.354;2024-02-26T04:02:24;99103.00;;;7.70
16956;BMP180;8594;52.052;8.354;2024-02-26T04:04:52;99105.00;;;8.10
16956;BMP180;8594;52.052;8.354;2024-02-26T04:07:19;99106.00;;;8.50
16956;BMP180;8594;52.052;8.354;2024-02-26T04:09:45;99115.00;;;8.10
16956;BMP180;8594;52.052;8.354;2024-02-26T04:12:12;99115.00;;;8.10
16956;BMP180;8594;52.052;8.354;2024-02-26T04:14:39;99115.00;;;8.40
16956;BMP180;8594;52.052;8.354;2024-02-26T04:17:06;99125.00;;;8.30
16956;BMP180;8594;52.052;8.354;2024-02-26T04:19:33;99125.00;;;8.20
16956;BMP180;8594;52.052;8.354;2024-02-26T04:22:02;99120.00;;;8.20
16956;BMP180;8594;52.052;8.354;2024-02-26T04:24:29;99123.00;;;8.20
16956;BMP180;8594;52.052;8.354;2024-02-26T04:26:55;99132.00;;;8.10
16956;BMP180;8594;52.052;8.354;2024-02-26T04:29:22;99137.00;;;7.80
16956;BMP180;8594;52.052;8.354;2024-02-26T04:31:49;99128.00;;;7.80
16956;BMP180;8594;52.052;8.354;2024-02-26T04:34:15;99133.00;;;8.00
16956;BMP180;8594;52.052;8.354;2024-02-26T04:36:42;99134.00;;;7.90
16956;BMP180;8594;52.052;8.354;2024-02-26T04:39:10;99135.00;;;8.00
16956;BMP180;8594;52.052;8.354;2024-02-26T04:41:37;99140.00;;;8.00
16956;BMP180;8594;52.052;8.354;2024-02-26T04:44:05;99140.00;;;7.90
16956;BMP180;8594;52.052;8.354;2024-02-26T04:46:31;99141.00;;;7.90
16956;BMP180;8594;52.052;8.354;2024-02-26T04:48:58;99142.00;;;7.70
16956;BMP180;8594;52.052;8.354;2024-02-26T04:51:25;99142.00;;;7.70
16956;BMP180;8594;52.052;8.354;2024-02-26T04:53:51;99145.00;;;8.10
16956;BMP180;8594;52.052;8.354;2024-02-26T04:56:20;99138.00;;;8.10
16956;BMP180;8594;52.052;8.354;2024-02-26T04:58:47;99140.00;;;8.10
16956;BMP180;8594;52.052;8.354;2024-02-26T05:01:15;99141.00;;;8.00
16956;BMP180;8594;52.052;8.354;2024-02-26T05:03:42;99146.00;;;8.10
16956;BMP180;8594;52.052;8.354;2024-02-26T05:06:09;99138.00;;;8.00
16956;BMP180;8594;52.052;8.354;2024-02-26T05:08:36;99151.00;;;7.80
16956;BMP180;8594;52.052;8.354;2024-02-26T05:11:04;99150.00;;;7.90
16956;BMP180;8594;52.052;8.354;2024-02-26T05:13:33;99147.00;;;7.80
16956;BMP180;8594;52.052;8.354;2024-02-26T05:15:59;99149.00;;;7.50
16956;BMP180;8594;52.052;8.354;2024-02-26T05:18:27;99150.00;;;7.70
16956;BMP180;8594;52.052;8.354;2024-02-26T05:20:54;99149.00;;;7.80
16956;BMP180;8594;52.052;8.354;2024-02-26T05:23:21;99151.00;;;7.60
16956;BMP180;8594;52.052;8.354;2024-02-26T05:25:49;99153.00;;;7.30
16956;BMP180;8594;52.052;8.354;2024-02-26T05:28:15;99148.00;;;7.50
16956;BMP180;8594;52.052;8.354;2024-02-26T05:30:45;99150.00;;;7.50
16956;BMP180;8594;52.052;8.354;2024-02-26T05:33:12;99147.00;;;7.70
16956;BMP180;8594;52.052;8.354;2024-02-26T05:35:39;99151.00;;;7.50
16956;BMP180;8594;52.052;8.354;2024-02-26T05:38:06;99157.00;;;7.70
16956;BMP180;8594;52.052;8.354;2024-02-26T05:40:33;99160.00;;;7.50
16956;BMP180;8594;52.052;8.354;2024-02-26T05:43:00;99166.00;;;7.90
16956;BMP180;8594;52.052;8.354;2024-02-26T05:45:27;99170.00;;;7.60
16956;BMP180;8594;52.052;8.354;2024-02-26T05:47:55;99162.00;;;8.10
16956;BMP180;8594;52.052;8.354;2024-02-26T05:50:21;99155.00;;;7.80
16956;BMP180;8594;52.052;8.354;2024-02-26T05:52:48;99165.00;;;7.80
16956;BMP180;8594;52.052;8.354;2024-02-26T05:55:15;99174.00;;;7.50
16956;BMP180;8594;52.052;8.354;2024-02-26T05:57:41;99173.00;;;7.60
16956;BMP180;8594;52.052;8.354;2024-02-26T06:00:10;99170.00;;;7.70
16956;BMP180;8594;52.052;8.354;2024-02-26T06:02:38;99187.00;;;7.80
16956;BMP180;8594;52.052;8.354;2024-02-26T06:05:07;99182.00;;;8.10
16956;BMP180;8594;52.052;8.354;2024-02-26T06:07:34;99188.00;;;7.90
16956;BMP180;8594;52.052;8.354;2024-02-26T06:10:01;99193.00;;;8.10
16956;BMP180;8594;52.052;8.354;2024-02-26T06:12:30;99190.00;;;8.30
16956;BMP180;8594;52.052;8.354;2024-02-26T06:14:57;99195.00;;;8.20
16956;BMP180;8594;52.052;8.354;2024-02-26T06:17:27;99190.00;;;7.70
16956;BMP180;8594;52.052;8.354;2024-02-26T06:19:54;99209.00;;;7.80
16956;BMP180;8594;52.052;8.354;2024-02-26T06:22:22;99204.00;;;8.00
16956;BMP180;8594;52.052;8.354;2024-02-26T06:24:49;99201.00;;;7.90
16956;BMP180;8594;52.052;8.354;2024-02-26T06:27:15;99197.00;;;7.70
16956;BMP180;8594;52.052;8.354;2024-02-26T06:29:42;99199.00;;;7.50
16956;BMP180;8594;52.052;8.354;2024-02-26T06:32:09;99209.00;;;7.40
16956;BMP180;8594;52.052;8.354;2024-02-26T06:34:35;99211.00;;;7.60
16956;BMP180;8594;52.052;8.354;2024-02-26T06:37:03;99218.00;;;7.40
16956;BMP180;8594;52.052;8.354;2024-02-26T06:39:31;99221.00;;;7.90
16956;BMP180;8594;52.052;8.354;2024-02-26T06:41:58;99220.00;;;7.70
16956;BMP180;8594;52.052;8.354;2024-02-26T06:44:27;99214.00;;;7.60
16956;BMP180;8594;52.052;8.354;2024-02-26T06:46:57;99218.00;;;7.50
16956;BMP180;8594;52.052;8.354;2024-02-26T06:49:25;99214.00;;;7.60
16956;BMP180;8594;52.052;8.354;2024-02-26T06:51:52;99213.00;;;7.80
16956;BMP180;8594;52.052;8.354;2024-02-26T06:54:18;99224.00;;;7.70
16956;BMP180;8594;52.052;8.354;2024-02-26T06:56:47;99216.00;;;7.70
16956;BMP180;8594;52.052;8.354;2024-02-26T06:59:13;99223.00;;;7.50
16956;BMP180;8594;52.052;8.354;2024-02-26T07:01:41;99219.00;;;7.70
16956;BMP180;8594;52.052;8.354;2024-02-26T07:04:08;99225.00;;;7.80
16956;BMP180;8594;52.052;8.354;2024-02-26T07:06:36;99220.00;;;7.70
16956;BMP180;8594;52.052;8.354;2024-02-26T07:09:03;99221.00;;;7.90
16956;BMP180;8594;52.052;8.354;2024-02-26T07:11:30;99221.00;;;8.00
16956;BMP180;8594;52.052;8.354;2024-02-26T07:13:58;99211.00;;;7.70
16956;BMP180;8594;52.052;8.354;2024-02-26T07:16:26;99211.00;;;8.30
16956;BMP180;8594;52.052;8.354;2024-02-26T07:18:53;99210.00;;;7.90
16956;BMP180;8594;52.052;8.354;2024-02-26T07:21:20;99198.00;;;7.70
16956;BMP180;8594;52.052;8.354;2024-02-26T07:23:46;99199.00;;;7.70
16956;BMP180;8594;52.052;8.354;2024-02-26T07:26:13;99193.00;;;7.70
16956;BMP180;8594;52.052;8.354;2024-02-26T07:28:40;99198.00;;;7.70
16956;BMP180;8594;52.052;8.354;2024-02-26T07:31:08;99203.00;;;7.80
16956;BMP180;8594;52.052;8.354;2024-02-26T07:33:35;99195.00;;;7.60
16956;BMP180;8594;52.052;8.354;2024-02-26T07:36:02;99199.00;;;7.70
16956;BMP180;8594;52.052;8.354;2024-02-26T07:38:29;99195.00;;;7.60
16956;BMP180;8594;52.052;8.354;2024-02-26T07:40:57;99204.00;;;7.50
16956;BMP180;8594;52.052;8.354;2024-02-26T07:43:23;99207.00;;;7.60
16956;BMP180;8594;52.052;8.354;2024-02-26T07:45:50;99203.00;;;7.50
16956;BMP180;8594;52.052;8.354;2024-02-26T07:48:18;99205.00;;;7.70
16956;BMP180;8594;52.052;8.354;2024-02-26T07:50:45;99210.00;;;7.80
16956;BMP180;8594;52.052;8.354;2024-02-26T07:53:11;99210.00;;;7.70
16956;BMP180;8594;52.052;8.354;2024-02-26T07:55:38;99213.00;;;7.50
16956;BMP180;8594;52.052;8.354;2024-02-26T07:58:05;99221.00;;;7.70
16956;BMP180;8594;52.052;8.354;2024-02-26T08:00:31;99232.00;;;7.50
16956;BMP180;8594;52.052;8.354;2024-02-26T08:02:58;99223.00;;;7.50
16956;BMP180;8594;52.052;8.354;2024-02-26T08:05:26;99225.00;;;7.60
16956;BMP180;8594;52.052;8.354;2024-02-26T08:07:53;99229.00;;;7.30
16956;BMP180;8594;52.052;8.354;2024-02-26T08:10:20;99221.00;;;7.30
16956;BMP180;8594;52.052;8.354;2024-02-26T08:12:47;99234.00;;;7.40
16956;BMP180;8594;52.052;8.354;2024-02-26T08:15:14;99233.00;;;7.40
16956;BMP180;8594;52.052;8.354;2024-02-26T08:17:40;99246.00;;;7.70
16956;BMP180;8594;52.052;8.354;2024-02-26T08:20:08;99245.00;;;7.70
16956;BMP180;8594;52.052;8.354;2024-02-26T08:22:36;99244.00;;;7.60
16956;BMP180;8594;52.052;8.354;2024-02-26T08:25:05;99252.00;;;7.90
16956;BMP180;8594;52.052;8.354;2024-02-26T08:27:34;99258.00;;;7.60
16956;BMP180;8594;52.052;8.354;2024-02-26T08:30:01;99259.00;;;7.60
16956;BMP180;8594;52.052;8.354;2024-02-26T08:32:28;99267.00;;;8.00
16956;BMP180;8594;52.052;8.354;2024-02-26T08:34:54;99272.00;;;7.60
16956;BMP180;8594;52.052;8.354;2024-02-26T08:37:21;99270.00;;;7.70
16956;BMP180;8594;52.052;8.354;2024-02-26T08:39:49;99265.00;;;7.70
16956;BMP180;8594;52.052;8.354;2024-02-26T08:42:16;99284.00;;;7.90
16956;BMP180;8594;52.052;8.354;2024-02-26T08:44:43;99281.00;;;8.00
16956;BMP180;8594;52.052;8.354;2024-02-26T08:47:09;99271.00;;;7.80
16956;BMP180;8594;52.052;8.354;2024-02-26T08:49:36;99274.00;;;8.00
16956;BMP180;8594;52.052;8.354;2024-02-26T08:52:05;99278.00;;;8.00
16956;BMP180;8594;52.052;8.354;2024-02-26T08:54:31;99288.00;;;7.80
16956;BMP180;8594;52.052;8.354;2024-02-26T08:57:00;99290.00;;;7.90
16956;BMP180;8594;52.052;8.354;2024-02-26T08:59:26;99287.00;;;7.80
16956;BMP180;8594;52.052;8.354;2024-02-26T09:01:53;99291.00;;;7.70
16956;BMP180;8594;52.052;8.354;2024-02-26T09:04:20;99298.00;;;7.80
16956;BMP180;8594;52.052;8.354;2024-02-26T09:06:47;99305.00;;;8.30
16956;BMP180;8594;52.052;8.354;2024-02-26T09:09:14;99311.00;;;7.90
16956;BMP180;8594;52.052;8.354;2024-02-26T09:11:41;99306.00;;;7.80
16956;BMP180;8594;52.052;8.354;2024-02-26T09:14:09;99305.00;;;7.90
16956;BMP180;8594;52.052;8.354;2024-02-26T09:16:36;99313.00;;;8.00
16956;BMP180;8594;52.052;8.354;2024-02-26T09:19:02;99316.00;;;8.20
16956;BMP180;8594;52.052;8.354;2024-02-26T09:21:29;99317.00;;;8.40
16956;BMP180;8594;52.052;8.354;2024-02-26T09:23:56;99328.00;;;8.20
16956;BMP180;8594;52.052;8.354;2024-02-26T09:26:23;99333.00;;;8.50
16956;BMP180;8594;52.052;8.354;2024-02-26T09:28:49;99334.00;;;8.00
16956;BMP180;8594;52.052;8.354;2024-02-26T09:31:18;99339.00;;;8.20
16956;BMP180;8594;52.052;8.354;2024-02-26T09:33:44;99346.00;;;8.40
16956;BMP180;8594;52.052;8.354;2024-02-26T09:36:11;99334.00;;;8.40
16956;BMP180;8594;52.052;8.354;2024-02-26T09:38:39;99343.00;;;8.60
16956;BMP180;8594;52.052;8.354;2024-02-26T09:41:06;99346.00;;;8.50
16956;BMP180;8594;52.052;8.354;2024-02-26T09:43:35;99352.00;;;8.50
16956;BMP180;8594;52.052;8.354;2024-02-26T09:46:03;99347.00;;;8.80
16956;BMP180;8594;52.052;8.354;2024-02-26T09:48:34;99349.00;;;8.70
16956;BMP180;8594;52.052;8.354;2024-02-26T09:51:02;99350.00;;;8.60
16956;BMP180;8594;52.052;8.354;2024-02-26T09:53:30;99349.00;;;8.60
16956;BMP180;8594;52.052;8.354;2024-02-26T09:55:58;99345.00;;;8.90
16956;BMP180;8594;52.052;8.354;2024-02-26T09:58:27;99349.00;;;8.80
16956;BMP180;8594;52.052;8.354;2024-02-26T10:00:57;99349.00;;;8.80
16956;BMP180;8594;52.052;8.354;2024-02-26T10:03:34;99348.00;;;9.20
16956;BMP180;8594;52.052;8.354;2024-02-26T10:06:06;99348.00;;;8.60
16956;BMP180;8594;52.052;8.354;2024-02-26T10:08:34;99353.00;;;8.40
16956;BMP180;8594;52.052;8.354;2024-02-26T10:11:03;99354.00;;;8.60
16956;BMP180;8594;52.052;8.354;2024-02-26T10:13:30;99343.00;;;9.30
16956;BMP180;8594;52.052;8.354;2024-02-26T10:15:57;99338.00;;;9.00
16956;BMP180;8594;52.052;8.354;2024-02-26T10:18:24;99349.00;;;9.00
16956;BMP180;8594;52.052;8.354;2024-02-26T10:21:01;99342.00;;;8.70
16956;BMP180;8594;52.052;8.354;2024-02-26T10:23:28;99355.00;;;8.50
16956;BMP180;8594;52.052;8.354;2024-02-26T10:25:55;99360.00;;;8.60
16956;BMP180;8594;52.052;8.354;2024-02-26T10:28:23;99369.00;;;8.70
16956;BMP180;8594;52.052;8.354;2024-02-26T10:30:51;99370.00;;;9.40
16956;BMP180;8594;52.052;8.354;2024-02-26T10:33:18;99375.00;;;8.70
16956;BMP180;8594;52.052;8.354;2024-02-26T10:35:46;99381.00;;;9.00
16956;BMP180;8594;52.052;8.354;2024-02-26T10:38:14;99384.00;;;9.00
16956;BMP180;8594;52.052;8.354;2024-02-26T10:40:45;99384.00;;;8.80
16956;BMP180;8594;52.052;8.354;2024-02-26T10:43:12;99388.00;;;9.20
16956;BMP180;8594;52.052;8.354;2024-02-26T10:45:40;99397.00;;;9.40
16956;BMP180;8594;52.052;8.354;2024-02-26T10:48:10;99398.00;;;9.10
16956;BMP180;8594;52.052;8.354;2024-02-26T10:50:38;99395.00;;;9.00
16956;BMP180;8594;52.052;8.354;2024-02-26T10:53:17;99396.00;;;9.20
16956;BMP180;8594;52.052;8.354;2024-02-26T10:55:48;99398.00;;;9.20
16956;BMP180;8594;52.052;8.354;2024-02-26T10:58:17;99402.00;;;9.10
16956;BMP180;8594;52.052;8.354;2024-02-26T11:00:44;99409.00;;;9.60
16956;BMP180;8594;52.052;8.354;2024-02-26T11:03:13;99415.00;;;9.20
16956;BMP180;8594;52.052;8.354;2024-02-26T11:05:42;99413.00;;;9.70
16956;BMP180;8594;52.052;8.354;2024-02-26T11:08:10;99412.00;;;9.10
16956;BMP180;8594;52.052;8.354;2024-02-26T11:10:40;99415.00;;;9.60
16956;BMP180;8594;52.052;8.354;2024-02-26T11:13:12;99411.00;;;8.90
16956;BMP180;8594;52.052;8.354;2024-02-26T11:15:40;99420.00;;;9.50
16956;BMP180;8594;52.052;8.354;2024-02-26T11:18:08;99426.00;;;9.80
16956;BMP180;8594;52.052;8.354;2024-02-26T11:20:40;99431.00;;;9.40
16956;BMP180;8594;52.052;8.354;2024-02-26T11:23:07;99434.00;;;9.70
16956;BMP180;8594;52.052;8.354;2024-02-26T11:25:35;99439.00;;;9.90
16956;BMP180;8594;52.052;8.354;2024-02-26T11:28:09;99437.00;;;10.30
16956;BMP180;8594;52.052;8.354;2024-02-26T11:30:42;99438.00;;;9.90
16956;BMP180;8594;52.052;8.354;2024-02-26T11:33:11;99447.00;;;9.70
16956;BMP180;8594;52.052;8.354;2024-02-26T11:35:39;99436.00;;;9.70
16956;BMP180;8594;52.052;8.354;2024-02-26T11:38:07;99440.00;;;9.80
16956;BMP180;8594;52.052;8.354;2024-02-26T11:40:38;99436.00;;;9.40
16956;BMP180;8594;52.052;8.354;2024-02-26T11:43:07;99439.00;;;9.70
16956;BMP180;8594;52.052;8.354;2024-02-26T11:45:50;99448.00;;;9.30
16956;BMP180;8594;52.052;8.354;2024-02-26T11:48:23;99447.00;;;9.60
16956;BMP180;8594;52.052;8.354;2024-02-26T11:50:52;99448.00;;;9.30
16956;BMP180;8594;52.052;8.354;2024-02-26T11:53:21;99449.00;;;9.50
16956;BMP180;8594;52.052;8.354;2024-02-26T11:55:48;99449.00;;;9.80
16956;BMP180;8594;52.052;8.354;2024-02-26T11:58:16;99450.00;;;9.40
16956;BMP180;8594;52.052;8.354;2024-02-26T12:00:43;99446.00;;;9.30
16956;BMP180;8594;52.052;8.354;2024-02-26T12:03:10;99451.00;;;9.80
16956;BMP180;8594;52.052;8.354;2024-02-26T12:05:38;99442.00;;;9.60
16956;BMP180;8594;52.052;8.354;2024-02-26T12:08:07;99445.00;;;9.60
16956;BMP180;8594;52.052;8.354;2024-02-26T12:13:10;99452.00;;;10.00
16956;BMP180;8594;52.052;8.354;2024-02-26T12:15:41;99460.00;;;9.90
16956;BMP180;8594;52.052;8.354;2024-02-26T12:18:15;99464.00;;;10.30
16956;BMP180;8594;52.052;8.354;2024-02-26T12:20:42;99475.00;;;9.60
16956;BMP180;8594;52.052;8.354;2024-02-26T12:23:14;99471.00;;;9.60
16956;BMP180;8594;52.052;8.354;2024-02-26T12:25:41;99481.00;;;9.40
16956;BMP180;8594;52.052;8.354;2024-02-26T12:28:09;99477.00;;;9.90
16956;BMP180;8594;52.052;8.354;2024-02-26T12:30:36;99485.00;;;9.80
16956;BMP180;8594;52.052;8.354;2024-02-26T12:33:04;99476.00;;;9.60
16956;BMP180;8594;52.052;8.354;2024-02-26T12:35:35;99488.00;;;9.90
16956;BMP180;8594;52.052;8.354;2024-02-26T12:38:03;99485.00;;;9.60
16956;BMP180;8594;52.052;8.354;2024-02-26T12:40:31;99480.00;;;9.70
16956;BMP180;8594;52.052;8.354;2024-02-26T12:42:58;99485.00;;;10.00
16956;BMP180;8594;52.052;8.354;2024-02-26T12:45:25;99479.00;;;9.70
16956;BMP180;8594;52.052;8.354;2024-02-26T12:47:53;99478.00;;;10.10
16956;BMP180;8594;52.052;8.354;2024-02-26T12:50:21;99481.00;;;9.60
16956;BMP180;8594;52.052;8.354;2024-02-26T12:52:51;99494.00;;;10.00
16956;BMP180;8594;52.052;8.354;2024-02-26T12:55:20;99494.00;;;10.10
16956;BMP180;8594;52.052;8.354;2024-02-26T12:57:48;99505.00;;;10.00
16956;BMP180;8594;52.052;8.354;2024-02-26T13:00:20;99514.00;;;10.30
16956;BMP180;8594;52.052;8.354;2024-02-26T13:02:49;99513.00;;;10.10
16956;BMP180;8594;52.052;8.354;2024-02-26T13:05:19;99503.00;;;9.60
16956;BMP180;8594;52.052;8.354;2024-02-26T13:07:48;99512.00;;;9.70
16956;BMP180;8594;52.052;8.354;2024-02-26T13:10:15;99517.00;;;9.60
16956;BMP180;8594;52.052;8.354;2024-02-26T13:12:44;99520.00;;;9.90
16956;BMP180;8594;52.052;8.354;2024-02-26T13:15:15;99516.00;;;9.70
16956;BMP180;8594;52.052;8.354;2024-02-26T13:17:42;99519.00;;;9.90
16956;BMP180;8594;52.052;8.354;2024-02-26T13:20:10;99525.00;;;10.40
16956;BMP180;8594;52.052;8.354;2024-02-26T13:22:37;99535.00;;;10.40
16956;BMP180;8594;52.052;8.354;2024-02-26T13:25:06;99539.00;;;10.20
16956;BMP180;8594;52.052;8.354;2024-02-26T13:27:34;99538.00;;;10.10
16956;BMP180;8594;52.052;8.354;2024-02-26T13:30:06;99538.00;;;9.80
16956;BMP180;8594;52.052;8.354;2024-02-26T13:32:37;99539.00;;;10.70
16956;BMP180;8594;52.052;8.354;2024-02-26T13:35:09;99532.00;;;10.50
16956;BMP180;8594;52.052;8.354;2024-02-26T13:37:36;99527.00;;;10.20
16956;BMP180;8594;52.052;8.354;2024-02-26T13:40:09;99539.00;;;10.70
16956;BMP180;8594;52.052;8.354;2024-02-26T13:42:36;99545.00;;;10.40
16956;BMP180;8594;52.052;8.354;2024-02-26T13:45:05;99540.00;;;10.70
16956;BMP180;8594;52.052;8.354;2024-02-26T13:47:33;99553.00;;;10.40
16956;BMP180;8594;52.052;8.354;2024-02-26T13:49:59;99547.00;;;10.70
16956;BMP180;8594;52.052;8.354;2024-02-26T13:52:27;99555.00;;;10.50
16956;BMP180;8594;52.052;8.354;2024-02-26T13:54:54;99563.00;;;10.50
16956;BMP180;8594;52.052;8.354;2024-02-26T13:57:22;99561.00;;;10.20
16956;BMP180;8594;52.052;8.354;2024-02-26T13:59:49;99560.00;;;10.70
16956;BMP180;8594;52.052;8.354;2024-02-26T14:02:17;99574.00;;;10.30
16956;BMP180;8594;52.052;8.354;2024-02-26T14:04:44;99574.00;;;10.60
16956;BMP180;8594;52.052;8.354;2024-02-26T14:07:11;99563.00;;;10.60
16956;BMP180;8594;52.052;8.354;2024-02-26T14:09:38;99578.00;;;10.30
16956;BMP180;8594;52.052;8.354;2024-02-26T14:12:06;99580.00;;;10.50
16956;BMP180;8594;52.052;8.354;2024-02-26T14:14:34;99582.00;;;10.80
16956;BMP180;8594;52.052;8.354;2024-02-26T14:17:04;99581.00;;;10.40
16956;BMP180;8594;52.052;8.354;2024-02-26T14:19:31;99583.00;;;10.40
16956;BMP180;8594;52.052;8.354;2024-02-26T14:21:58;99589.00;;;10.20
16956;BMP180;8594;52.052;8.354;2024-02-26T14:24:24;99584.00;;;10.20
16956;BMP180;8594;52.052;8.354;2024-02-26T14:26:51;99599.00;;;10.30
16956;BMP180;8594;52.052;8.354;2024-02-26T14:29:18;99597.00;;;10.30
16956;BMP180;8594;52.052;8.354;2024-02-26T14:31:46;99604.00;;;9.90
16956;BMP180;8594;52.052;8.354;2024-02-26T14:34:13;99611.00;;;10.30
16956;BMP180;8594;52.052;8.354;2024-02-26T14:36:40;99618.00;;;10.10
16956;BMP180;8594;52.052;8.354;2024-02-26T14:39:07;99616.00;;;10.30